sensor_id;sensor_type;location;lat;lon;timestamp;P1;durP1;ratioP1;P2;durP2;ratioP2
16512;SDS011;8369;48.030;11.598;2023-12-20T00:01:55;2.70;;;2.00;;
16512;SDS011;8369;48.030;11.598;2023-12-20T00:04:21;3.23;;;2.20;;
16512;SDS011;8369;48.030;11.598;2023-12-20T00:06:49;2.83;;;1.80;;
16512;SDS011;8369;48.030;11.598;2023-12-20T00:09:16;2.93;;;2.00;;
16512;SDS011;8369;48.030;11.598;2023-12-20T00:11:42;3.10;;;2.10;;
16512;SDS011;8369;48.030;11.598;2023-12-20T00:14:08;2.57;;;2.10;;
16512;SDS011;8369;48.030;11.598;2023-12-20T00:16:34;2.20;;;1.90;;
16512;SDS011;8369;48.030;11.598;2023-12-20T00:19:00;2.75;;;2.00;;
16512;SDS011;8369;48.030;11.598;2023-12-20T00:21:36;2.33;;;1.83;;
16512;SDS011;8369;48.030;11.598;2023-12-20T00:24:02;3.10;;;1.90;;
16512;SDS011;8369;48.030;11.598;2023-12-20T00:26:28;2.87;;;2.03;;
16512;SDS011;8369;48.030;11.598;2023-12-20T00:28:54;2.10;;;1.90;;
16512;SDS011;8369;48.030;11.598;2023-12-20T00:31:20;2.73;;;2.00;;
16512;SDS011;8369;48.030;11.598;2023-12-20T00:33:46;2.67;;;1.83;;
16512;SDS011;8369;48.030;11.598;2023-12-20T00:36:12;2.40;;;1.67;;
16512;SDS011;8369;48.030;11.598;2023-12-20T00:38:38;2.30;;;1.77;;
16512;SDS011;8369;48.030;11.598;2023-12-20T00:41:04;2.17;;;1.90;;
16512;SDS011;8369;48.030;11.598;2023-12-20T00:43:30;1.90;;;1.60;;
16512;SDS011;8369;48.030;11.598;2023-12-20T00:45:57;2.80;;;2.10;;
16512;SDS011;8369;48.030;11.598;2023-12-20T00:48:27;2.10;;;1.60;;
16512;SDS011;8369;48.030;11.598;2023-12-20T00:50:55;2.03;;;1.83;;
16512;SDS011;8369;48.030;11.598;2023-12-20T00:53:23;3.37;;;1.90;;
16512;SDS011;8369;48.030;11.598;2023-12-20T00:55:49;2.50;;;1.77;;
16512;SDS011;8369;48.030;11.598;2023-12-20T00:58:15;2.30;;;1.87;;
16512;SDS011;8369;48.030;11.598;2023-12-20T01:00:42;2.23;;;1.87;;
16512;SDS011;8369;48.030;11.598;2023-12-20T01:03:11;3.87;;;2.00;;
16512;SDS011;8369;48.030;11.598;2023-12-20T01:05:37;2.00;;;1.80;;
16512;SDS011;8369;48.030;11.598;2023-12-20T01:08:03;2.17;;;1.90;;
16512;SDS011;8369;48.030;11.598;2023-12-20T01:10:37;2.53;;;1.93;;
16512;SDS011;8369;48.030;11.598;2023-12-20T01:13:03;2.50;;;1.90;;
16512;SDS011;8369;48.030;11.598;2023-12-20T01:15:30;2.80;;;2.00;;
16512;SDS011;8369;48.030;11.598;2023-12-20T01:17:56;2.83;;;1.80;;
16512;SDS011;8369;48.030;11.598;2023-12-20T01:20:24;6.10;;;2.10;;
16512;SDS011;8369;48.030;11.598;2023-12-20T01:22:50;2.87;;;1.90;;
16512;SDS011;8369;48.030;11.598;2023-12-20T01:25:16;3.47;;;2.00;;
16512;SDS011;8369;48.030;11.598;2023-12-20T01:27:42;2.63;;;1.90;;
16512;SDS011;8369;48.030;11.598;2023-12-20T01:30:08;3.20;;;1.90;;
16512;SDS011;8369;48.030;11.598;2023-12-20T01:32:35;2.67;;;2.00;;
16512;SDS011;8369;48.030;11.598;2023-12-20T01:35:01;2.00;;;1.70;;
16512;SDS011;8369;48.030;11.598;2023-12-20T01:37:27;2.00;;;1.80;;
16512;SDS011;8369;48.030;11.598;2023-12-20T01:39:56;2.90;;;2.00;;
16512;SDS011;8369;48.030;11.598;2023-12-20T01:42:24;2.67;;;1.90;;
16512;SDS011;8369;48.030;11.598;2023-12-20T01:44:50;2.83;;;2.03;;
16512;SDS011;8369;48.030;11.598;2023-12-20T01:47:16;2.30;;;2.00;;
16512;SDS011;8369;48.030;11.598;2023-12-20T01:49:44;3.20;;;1.97;;
16512;SDS011;8369;48.030;11.598;2023-12-20T01:52:11;3.10;;;2.13;;
16512;SDS011;8369;48.030;11.598;2023-12-20T01:54:38;2.13;;;1.87;;
16512;SDS011;8369;48.030;11.598;2023-12-20T01:57:05;3.13;;;2.00;;
16512;SDS011;8369;48.030;11.598;2023-12-20T01:59:32;3.17;;;2.20;;
16512;SDS011;8369;48.030;11.598;2023-12-20T02:01:59;2.60;;;2.00;;
16512;SDS011;8369;48.030;11.598;2023-12-20T02:04:25;3.53;;;2.07;;
16512;SDS011;8369;48.030;11.598;2023-12-20T02:06:52;2.03;;;1.83;;
16512;SDS011;8369;48.030;11.598;2023-12-20T02:09:19;2.73;;;2.00;;
16512;SDS011;8369;48.030;11.598;2023-12-20T02:11:45;2.30;;;1.90;;
16512;SDS011;8369;48.030;11.598;2023-12-20T02:14:11;4.17;;;2.20;;
16512;SDS011;8369;48.030;11.598;2023-12-20T02:16:39;2.57;;;1.87;;
16512;SDS011;8369;48.030;11.598;2023-12-20T02:19:05;2.53;;;1.90;;
16512;SDS011;8369;48.030;11.598;2023-12-20T02:21:39;1.97;;;1.70;;
16512;SDS011;8369;48.030;11.598;2023-12-20T02:24:05;3.43;;;2.00;;
16512;SDS011;8369;48.030;11.598;2023-12-20T02:26:32;1.80;;;1.60;;
16512;SDS011;8369;48.030;11.598;2023-12-20T02:28:59;1.90;;;1.60;;
16512;SDS011;8369;48.030;11.598;2023-12-20T02:31:25;4.50;;;2.87;;
16512;SDS011;8369;48.030;11.598;2023-12-20T02:33:54;5.67;;;3.60;;
16512;SDS011;8369;48.030;11.598;2023-12-20T02:36:20;3.77;;;2.83;;
16512;SDS011;8369;48.030;11.598;2023-12-20T02:38:46;5.70;;;4.00;;
16512;SDS011;8369;48.030;11.598;2023-12-20T02:41:13;7.10;;;4.93;;
16512;SDS011;8369;48.030;11.598;2023-12-20T02:43:41;9.07;;;5.57;;
16512;SDS011;8369;48.030;11.598;2023-12-20T02:46:09;5.50;;;3.97;;
16512;SDS011;8369;48.030;11.598;2023-12-20T02:48:35;6.23;;;4.03;;
16512;SDS011;8369;48.030;11.598;2023-12-20T02:51:02;3.23;;;2.57;;
16512;SDS011;8369;48.030;11.598;2023-12-20T02:53:28;4.87;;;3.70;;
16512;SDS011;8369;48.030;11.598;2023-12-20T02:55:54;5.07;;;3.30;;
16512;SDS011;8369;48.030;11.598;2023-12-20T02:58:20;4.90;;;3.03;;
16512;SDS011;8369;48.030;11.598;2023-12-20T03:00:47;3.70;;;2.33;;
16512;SDS011;8369;48.030;11.598;2023-12-20T03:03:14;2.70;;;1.97;;
16512;SDS011;8369;48.030;11.598;2023-12-20T03:05:41;3.40;;;2.13;;
16512;SDS011;8369;48.030;11.598;2023-12-20T03:08:08;2.63;;;1.97;;
16512;SDS011;8369;48.030;11.598;2023-12-20T03:10:34;2.80;;;2.00;;
16512;SDS011;8369;48.030;11.598;2023-12-20T03:13:00;2.53;;;2.20;;
16512;SDS011;8369;48.030;11.598;2023-12-20T03:15:26;2.77;;;1.87;;
16512;SDS011;8369;48.030;11.598;2023-12-20T03:17:53;3.30;;;2.10;;
16512;SDS011;8369;48.030;11.598;2023-12-20T03:20:20;3.87;;;2.40;;
16512;SDS011;8369;48.030;11.598;2023-12-20T03:22:46;3.13;;;2.03;;
16512;SDS011;8369;48.030;11.598;2023-12-20T03:25:12;2.93;;;2.33;;
16512;SDS011;8369;48.030;11.598;2023-12-20T03:27:40;3.10;;;2.20;;
16512;SDS011;8369;48.030;11.598;2023-12-20T03:30:06;3.00;;;2.30;;
16512;SDS011;8369;48.030;11.598;2023-12-20T03:32:42;3.50;;;2.20;;
16512;SDS011;8369;48.030;11.598;2023-12-20T03:35:09;3.10;;;2.43;;
16512;SDS011;8369;48.030;11.598;2023-12-20T03:37:35;2.90;;;2.07;;
16512;SDS011;8369;48.030;11.598;2023-12-20T03:40:02;2.60;;;2.10;;
16512;SDS011;8369;48.030;11.598;2023-12-20T03:42:29;3.10;;;2.33;;
16512;SDS011;8369;48.030;11.598;2023-12-20T03:44:54;2.57;;;2.00;;
16512;SDS011;8369;48.030;11.598;2023-12-20T03:47:22;2.57;;;2.00;;
16512;SDS011;8369;48.030;11.598;2023-12-20T03:49:48;2.77;;;2.30;;
16512;SDS011;8369;48.030;11.598;2023-12-20T03:52:14;2.10;;;1.90;;
16512;SDS011;8369;48.030;11.598;2023-12-20T03:54:48;2.00;;;1.77;;
16512;SDS011;8369;48.030;11.598;2023-12-20T03:57:15;3.27;;;2.30;;
16512;SDS011;8369;48.030;11.598;2023-12-20T03:59:41;2.90;;;2.20;;
16512;SDS011;8369;48.030;11.598;2023-12-20T04:02:08;2.30;;;1.90;;
16512;SDS011;8369;48.030;11.598;2023-12-20T04:04:34;2.83;;;1.80;;
16512;SDS011;8369;48.030;11.598;2023-12-20T04:07:00;2.03;;;1.70;;
16512;SDS011;8369;48.030;11.598;2023-12-20T04:09:28;1.80;;;1.40;;
16512;SDS011;8369;48.030;11.598;2023-12-20T04:11:53;3.20;;;1.33;;
16512;SDS011;8369;48.030;11.598;2023-12-20T04:14:21;1.30;;;1.20;;
16512;SDS011;8369;48.030;11.598;2023-12-20T04:17:01;1.30;;;0.90;;
16512;SDS011;8369;48.030;11.598;2023-12-20T04:19:27;1.07;;;1.00;;
16512;SDS011;8369;48.030;11.598;2023-12-20T04:21:53;1.00;;;0.90;;
16512;SDS011;8369;48.030;11.598;2023-12-20T04:24:19;0.90;;;0.90;;
16512;SDS011;8369;48.030;11.598;2023-12-20T04:26:44;1.10;;;1.00;;
16512;SDS011;8369;48.030;11.598;2023-12-20T04:29:10;0.83;;;0.83;;
16512;SDS011;8369;48.030;11.598;2023-12-20T04:31:44;1.10;;;1.00;;
16512;SDS011;8369;48.030;11.598;2023-12-20T04:34:10;0.83;;;0.83;;
16512;SDS011;8369;48.030;11.598;2023-12-20T04:36:36;0.80;;;0.80;;
16512;SDS011;8369;48.030;11.598;2023-12-20T04:39:02;0.93;;;0.93;;
16512;SDS011;8369;48.030;11.598;2023-12-20T04:41:28;1.23;;;1.00;;
16512;SDS011;8369;48.030;11.598;2023-12-20T04:43:54;1.07;;;0.93;;
16512;SDS011;8369;48.030;11.598;2023-12-20T04:46:19;1.27;;;1.07;;
16512;SDS011;8369;48.030;11.598;2023-12-20T04:48:45;1.20;;;1.10;;
16512;SDS011;8369;48.030;11.598;2023-12-20T04:51:11;0.97;;;0.83;;
16512;SDS011;8369;48.030;11.598;2023-12-20T04:53:38;1.10;;;1.10;;
16512;SDS011;8369;48.030;11.598;2023-12-20T04:56:04;0.90;;;0.90;;
16512;SDS011;8369;48.030;11.598;2023-12-20T04:58:42;1.20;;;1.10;;
16512;SDS011;8369;48.030;11.598;2023-12-20T05:01:08;1.30;;;1.20;;
16512;SDS011;8369;48.030;11.598;2023-12-20T05:03:35;1.30;;;1.20;;
16512;SDS011;8369;48.030;11.598;2023-12-20T05:06:01;1.20;;;1.10;;
16512;SDS011;8369;48.030;11.598;2023-12-20T05:08:27;1.37;;;1.27;;
16512;SDS011;8369;48.030;11.598;2023-12-20T05:10:54;2.53;;;1.30;;
16512;SDS011;8369;48.030;11.598;2023-12-20T05:13:19;1.67;;;1.57;;
16512;SDS011;8369;48.030;11.598;2023-12-20T05:15:46;1.80;;;1.40;;
16512;SDS011;8369;48.030;11.598;2023-12-20T05:18:25;2.00;;;1.60;;
16512;SDS011;8369;48.030;11.598;2023-12-20T05:20:50;2.67;;;1.60;;
16512;SDS011;8369;48.030;11.598;2023-12-20T05:23:17;2.03;;;1.70;;
16512;SDS011;8369;48.030;11.598;2023-12-20T05:25:49;1.60;;;1.43;;
16512;SDS011;8369;48.030;11.598;2023-12-20T05:28:16;3.20;;;2.07;;
16512;SDS011;8369;48.030;11.598;2023-12-20T05:30:42;5.77;;;3.47;;
16512;SDS011;8369;48.030;11.598;2023-12-20T05:33:16;2.93;;;2.00;;
16512;SDS011;8369;48.030;11.598;2023-12-20T05:35:42;2.70;;;1.73;;
16512;SDS011;8369;48.030;11.598;2023-12-20T05:38:08;1.63;;;1.30;;
16512;SDS011;8369;48.030;11.598;2023-12-20T05:40:35;1.90;;;1.30;;
16512;SDS011;8369;48.030;11.598;2023-12-20T05:43:01;1.60;;;1.30;;
16512;SDS011;8369;48.030;11.598;2023-12-20T05:45:28;1.40;;;1.30;;
16512;SDS011;8369;48.030;11.598;2023-12-20T05:47:54;1.57;;;1.40;;
16512;SDS011;8369;48.030;11.598;2023-12-20T05:50:20;1.67;;;1.30;;
16512;SDS011;8369;48.030;11.598;2023-12-20T05:52:46;1.43;;;1.33;;
16512;SDS011;8369;48.030;11.598;2023-12-20T05:55:18;2.93;;;1.70;;
16512;SDS011;8369;48.030;11.598;2023-12-20T05:57:44;2.47;;;1.30;;
16512;SDS011;8369;48.030;11.598;2023-12-20T06:00:10;1.73;;;1.40;;
16512;SDS011;8369;48.030;11.598;2023-12-20T06:02:37;1.40;;;1.30;;
16512;SDS011;8369;48.030;11.598;2023-12-20T06:05:06;1.50;;;1.33;;
16512;SDS011;8369;48.030;11.598;2023-12-20T06:07:33;1.07;;;1.00;;
16512;SDS011;8369;48.030;11.598;2023-12-20T06:10:00;1.30;;;1.10;;
16512;SDS011;8369;48.030;11.598;2023-12-20T06:12:26;1.43;;;1.27;;
16512;SDS011;8369;48.030;11.598;2023-12-20T06:14:54;1.00;;;1.00;;
16512;SDS011;8369;48.030;11.598;2023-12-20T06:17:20;1.30;;;1.10;;
16512;SDS011;8369;48.030;11.598;2023-12-20T06:19:52;1.50;;;1.40;;
16512;SDS011;8369;48.030;11.598;2023-12-20T06:22:17;1.33;;;1.20;;
16512;SDS011;8369;48.030;11.598;2023-12-20T06:24:43;1.27;;;1.17;;
16512;SDS011;8369;48.030;11.598;2023-12-20T06:27:09;1.30;;;1.20;;
16512;SDS011;8369;48.030;11.598;2023-12-20T06:29:34;1.87;;;1.13;;
16512;SDS011;8369;48.030;11.598;2023-12-20T06:32:00;1.30;;;1.20;;
16512;SDS011;8369;48.030;11.598;2023-12-20T06:34:26;1.30;;;1.20;;
16512;SDS011;8369;48.030;11.598;2023-12-20T06:36:51;1.20;;;1.10;;
16512;SDS011;8369;48.030;11.598;2023-12-20T06:39:20;1.20;;;1.10;;
16512;SDS011;8369;48.030;11.598;2023-12-20T06:41:45;1.13;;;1.00;;
16512;SDS011;8369;48.030;11.598;2023-12-20T06:44:12;1.20;;;1.10;;
16512;SDS011;8369;48.030;11.598;2023-12-20T06:46:39;1.70;;;1.20;;
16512;SDS011;8369;48.030;11.598;2023-12-20T06:49:05;1.00;;;1.00;;
16512;SDS011;8369;48.030;11.598;2023-12-20T06:51:30;1.33;;;1.20;;
16512;SDS011;8369;48.030;11.598;2023-12-20T06:54:00;1.20;;;1.10;;
16512;SDS011;8369;48.030;11.598;2023-12-20T06:56:27;5.27;;;1.20;;
16512;SDS011;8369;48.030;11.598;2023-12-20T06:58:53;1.73;;;1.10;;
16512;SDS011;8369;48.030;11.598;2023-12-20T07:01:19;1.23;;;1.10;;
16512;SDS011;8369;48.030;11.598;2023-12-20T07:03:46;1.20;;;1.10;;
16512;SDS011;8369;48.030;11.598;2023-12-20T07:06:12;1.37;;;0.90;;
16512;SDS011;8369;48.030;11.598;2023-12-20T07:08:39;1.23;;;1.10;;
16512;SDS011;8369;48.030;11.598;2023-12-20T07:11:05;1.10;;;1.00;;
16512;SDS011;8369;48.030;11.598;2023-12-20T07:13:32;1.43;;;1.20;;
16512;SDS011;8369;48.030;11.598;2023-12-20T07:16:05;1.83;;;1.10;;
16512;SDS011;8369;48.030;11.598;2023-12-20T07:18:30;1.50;;;1.40;;
16512;SDS011;8369;48.030;11.598;2023-12-20T07:20:56;1.93;;;1.40;;
16512;SDS011;8369;48.030;11.598;2023-12-20T07:23:24;1.13;;;1.07;;
16512;SDS011;8369;48.030;11.598;2023-12-20T07:25:51;1.40;;;1.20;;
16512;SDS011;8369;48.030;11.598;2023-12-20T07:30:46;1.30;;;1.20;;
16512;SDS011;8369;48.030;11.598;2023-12-20T07:33:12;1.90;;;1.40;;
16512;SDS011;8369;48.030;11.598;2023-12-20T07:35:38;1.17;;;1.07;;
16512;SDS011;8369;48.030;11.598;2023-12-20T07:38:06;0.90;;;0.90;;
16512;SDS011;8369;48.030;11.598;2023-12-20T07:40:31;1.47;;;1.20;;
16512;SDS011;8369;48.030;11.598;2023-12-20T07:42:57;0.90;;;0.90;;
16512;SDS011;8369;48.030;11.598;2023-12-20T07:45:26;1.53;;;1.10;;
16512;SDS011;8369;48.030;11.598;2023-12-20T07:47:51;1.07;;;0.80;;
16512;SDS011;8369;48.030;11.598;2023-12-20T07:50:17;1.23;;;1.00;;
16512;SDS011;8369;48.030;11.598;2023-12-20T07:52:43;1.43;;;1.20;;
16512;SDS011;8369;48.030;11.598;2023-12-20T07:55:08;0.93;;;0.87;;
16512;SDS011;8369;48.030;11.598;2023-12-20T07:57:34;1.10;;;1.00;;
16512;SDS011;8369;48.030;11.598;2023-12-20T08:00:01;1.00;;;1.00;;
16512;SDS011;8369;48.030;11.598;2023-12-20T08:02:29;1.30;;;1.00;;
16512;SDS011;8369;48.030;11.598;2023-12-20T08:04:56;1.23;;;1.13;;
16512;SDS011;8369;48.030;11.598;2023-12-20T08:07:22;0.93;;;0.90;;
16512;SDS011;8369;48.030;11.598;2023-12-20T08:09:49;1.00;;;1.00;;
16512;SDS011;8369;48.030;11.598;2023-12-20T08:12:16;1.00;;;0.90;;
16512;SDS011;8369;48.030;11.598;2023-12-20T08:14:49;1.20;;;1.07;;
16512;SDS011;8369;48.030;11.598;2023-12-20T08:17:14;1.10;;;1.00;;
16512;SDS011;8369;48.030;11.598;2023-12-20T08:19:41;1.30;;;1.10;;
16512;SDS011;8369;48.030;11.598;2023-12-20T08:22:07;0.90;;;0.90;;
16512;SDS011;8369;48.030;11.598;2023-12-20T08:24:33;1.00;;;0.90;;
16512;SDS011;8369;48.030;11.598;2023-12-20T08:26:59;0.80;;;0.80;;
16512;SDS011;8369;48.030;11.598;2023-12-20T08:29:27;1.17;;;1.07;;
16512;SDS011;8369;48.030;11.598;2023-12-20T08:31:53;0.77;;;0.77;;
16512;SDS011;8369;48.030;11.598;2023-12-20T08:34:19;0.80;;;0.80;;
16512;SDS011;8369;48.030;11.598;2023-12-20T08:36:45;0.90;;;0.90;;
16512;SDS011;8369;48.030;11.598;2023-12-20T08:39:12;1.00;;;0.90;;
16512;SDS011;8369;48.030;11.598;2023-12-20T08:41:37;2.63;;;0.97;;
16512;SDS011;8369;48.030;11.598;2023-12-20T08:44:06;0.70;;;0.70;;
16512;SDS011;8369;48.030;11.598;2023-12-20T08:46:33;0.93;;;0.90;;
16512;SDS011;8369;48.030;11.598;2023-12-20T08:48:59;1.20;;;1.10;;
16512;SDS011;8369;48.030;11.598;2023-12-20T08:51:25;1.40;;;1.30;;
16512;SDS011;8369;48.030;11.598;2023-12-20T08:53:51;1.33;;;1.10;;
16512;SDS011;8369;48.030;11.598;2023-12-20T08:56:17;1.33;;;0.90;;
16512;SDS011;8369;48.030;11.598;2023-12-20T08:58:43;1.00;;;1.00;;
16512;SDS011;8369;48.030;11.598;2023-12-20T09:01:09;1.20;;;1.10;;
16512;SDS011;8369;48.030;11.598;2023-12-20T09:03:35;2.50;;;1.20;;
16512;SDS011;8369;48.030;11.598;2023-12-20T09:06:01;1.10;;;1.00;;
16512;SDS011;8369;48.030;11.598;2023-12-20T09:11:13;1.83;;;1.10;;
16512;SDS011;8369;48.030;11.598;2023-12-20T09:13:39;1.10;;;1.00;;
16512;SDS011;8369;48.030;11.598;2023-12-20T09:16:07;1.30;;;1.20;;
16512;SDS011;8369;48.030;11.598;2023-12-20T09:18:33;1.10;;;1.00;;
16512;SDS011;8369;48.030;11.598;2023-12-20T09:20:59;1.20;;;1.10;;
16512;SDS011;8369;48.030;11.598;2023-12-20T09:23:25;1.37;;;1.10;;
16512;SDS011;8369;48.030;11.598;2023-12-20T09:25:50;1.17;;;1.10;;
16512;SDS011;8369;48.030;11.598;2023-12-20T09:28:16;0.90;;;0.90;;
16512;SDS011;8369;48.030;11.598;2023-12-20T09:30:44;1.20;;;1.10;;
16512;SDS011;8369;48.030;11.598;2023-12-20T09:33:14;1.17;;;1.00;;
16512;SDS011;8369;48.030;11.598;2023-12-20T09:35:41;1.00;;;0.90;;
16512;SDS011;8369;48.030;11.598;2023-12-20T09:38:07;1.53;;;0.97;;
16512;SDS011;8369;48.030;11.598;2023-12-20T09:40:33;1.40;;;1.30;;
16512;SDS011;8369;48.030;11.598;2023-12-20T09:43:04;1.17;;;1.00;;
16512;SDS011;8369;48.030;11.598;2023-12-20T09:45:36;1.20;;;1.10;;
16512;SDS011;8369;48.030;11.598;2023-12-20T09:48:02;3.97;;;1.20;;
16512;SDS011;8369;48.030;11.598;2023-12-20T09:50:30;1.63;;;1.17;;
16512;SDS011;8369;48.030;11.598;2023-12-20T09:52:58;1.20;;;1.10;;
16512;SDS011;8369;48.030;11.598;2023-12-20T09:55:25;1.20;;;1.10;;
16512;SDS011;8369;48.030;11.598;2023-12-20T09:57:53;6.50;;;1.20;;
16512;SDS011;8369;48.030;11.598;2023-12-20T10:00:19;2.20;;;1.13;;
16512;SDS011;8369;48.030;11.598;2023-12-20T10:05:17;0.90;;;0.90;;
16512;SDS011;8369;48.030;11.598;2023-12-20T10:07:48;1.27;;;1.17;;
16512;SDS011;8369;48.030;11.598;2023-12-20T10:10:14;1.10;;;1.00;;
16512;SDS011;8369;48.030;11.598;2023-12-20T10:12:40;2.00;;;1.63;;
16512;SDS011;8369;48.030;11.598;2023-12-20T10:15:06;3.07;;;2.27;;
16512;SDS011;8369;48.030;11.598;2023-12-20T10:17:32;1.40;;;1.30;;
16512;SDS011;8369;48.030;11.598;2023-12-20T10:19:58;1.13;;;1.00;;
16512;SDS011;8369;48.030;11.598;2023-12-20T10:22:24;0.90;;;0.90;;
16512;SDS011;8369;48.030;11.598;2023-12-20T10:24:49;0.97;;;0.87;;
16512;SDS011;8369;48.030;11.598;2023-12-20T10:27:15;0.90;;;0.90;;
16512;SDS011;8369;48.030;11.598;2023-12-20T10:29:44;1.20;;;1.10;;
16512;SDS011;8369;48.030;11.598;2023-12-20T10:32:23;1.10;;;1.00;;
16512;SDS011;8369;48.030;11.598;2023-12-20T10:34:51;1.07;;;1.00;;
16512;SDS011;8369;48.030;11.598;2023-12-20T10:37:17;1.00;;;1.00;;
16512;SDS011;8369;48.030;11.598;2023-12-20T10:39:43;1.17;;;1.07;;
16512;SDS011;8369;48.030;11.598;2023-12-20T10:42:13;0.90;;;0.90;;
16512;SDS011;8369;48.030;11.598;2023-12-20T10:44:40;0.70;;;0.70;;
16512;SDS011;8369;48.030;11.598;2023-12-20T10:47:06;0.90;;;0.90;;
16512;SDS011;8369;48.030;11.598;2023-12-20T10:49:33;5.50;;;3.10;;
16512;SDS011;8369;48.030;11.598;2023-12-20T10:52:02;1.50;;;1.40;;
16512;SDS011;8369;48.030;11.598;2023-12-20T10:54:30;0.90;;;0.90;;
16512;SDS011;8369;48.030;11.598;2023-12-20T10:56:57;1.67;;;1.20;;
16512;SDS011;8369;48.030;11.598;2023-12-20T10:59:24;1.50;;;1.40;;
16512;SDS011;8369;48.030;11.598;2023-12-20T11:01:50;1.70;;;1.23;;
16512;SDS011;8369;48.030;11.598;2023-12-20T11:04:21;1.63;;;1.40;;
16512;SDS011;8369;48.030;11.598;2023-12-20T11:06:54;1.70;;;1.30;;
16512;SDS011;8369;48.030;11.598;2023-12-20T11:09:28;1.50;;;1.17;;
16512;SDS011;8369;48.030;11.598;2023-12-20T11:12:12;2.00;;;1.53;;
16512;SDS011;8369;48.030;11.598;2023-12-20T11:14:43;2.40;;;1.17;;
16512;SDS011;8369;48.030;11.598;2023-12-20T11:17:13;1.40;;;1.30;;
16512;SDS011;8369;48.030;11.598;2023-12-20T11:22:24;1.10;;;1.00;;
16512;SDS011;8369;48.030;11.598;2023-12-20T11:24:51;0.97;;;0.93;;
16512;SDS011;8369;48.030;11.598;2023-12-20T11:27:19;1.43;;;1.27;;
16512;SDS011;8369;48.030;11.598;2023-12-20T11:29:51;0.90;;;0.90;;
16512;SDS011;8369;48.030;11.598;2023-12-20T11:37:36;1.13;;;1.00;;
16512;SDS011;8369;48.030;11.598;2023-12-20T11:40:04;1.20;;;1.10;;
16512;SDS011;8369;48.030;11.598;2023-12-20T11:42:42;1.10;;;1.00;;
16512;SDS011;8369;48.030;11.598;2023-12-20T11:45:14;1.10;;;0.93;;
16512;SDS011;8369;48.030;11.598;2023-12-20T11:47:42;1.37;;;1.27;;
16512;SDS011;8369;48.030;11.598;2023-12-20T11:50:10;1.07;;;0.97;;
16512;SDS011;8369;48.030;11.598;2023-12-20T11:52:37;1.80;;;1.07;;
16512;SDS011;8369;48.030;11.598;2023-12-20T11:55:07;0.90;;;0.90;;
16512;SDS011;8369;48.030;11.598;2023-12-20T11:57:33;1.00;;;1.00;;
16512;SDS011;8369;48.030;11.598;2023-12-20T12:00:01;1.10;;;1.00;;
16512;SDS011;8369;48.030;11.598;2023-12-20T12:02:28;1.10;;;1.00;;
16512;SDS011;8369;48.030;11.598;2023-12-20T12:04:53;1.47;;;1.10;;
16512;SDS011;8369;48.030;11.598;2023-12-20T12:07:21;1.50;;;1.23;;
16512;SDS011;8369;48.030;11.598;2023-12-20T12:09:47;1.00;;;1.00;;
16512;SDS011;8369;48.030;11.598;2023-12-20T12:12:13;0.87;;;0.87;;
16512;SDS011;8369;48.030;11.598;2023-12-20T12:14:39;1.23;;;1.13;;
16512;SDS011;8369;48.030;11.598;2023-12-20T12:17:11;0.87;;;0.87;;
16512;SDS011;8369;48.030;11.598;2023-12-20T12:19:39;0.70;;;0.70;;
16512;SDS011;8369;48.030;11.598;2023-12-20T12:22:06;0.97;;;0.80;;
16512;SDS011;8369;48.030;11.598;2023-12-20T12:24:38;1.13;;;0.93;;
16512;SDS011;8369;48.030;11.598;2023-12-20T12:27:08;1.40;;;1.17;;
16512;SDS011;8369;48.030;11.598;2023-12-20T12:29:37;1.13;;;1.07;;
16512;SDS011;8369;48.030;11.598;2023-12-20T12:32:06;1.40;;;1.30;;
16512;SDS011;8369;48.030;11.598;2023-12-20T12:34:33;1.30;;;1.20;;
16512;SDS011;8369;48.030;11.598;2023-12-20T12:37:00;1.40;;;1.20;;
16512;SDS011;8369;48.030;11.598;2023-12-20T12:39:26;1.27;;;1.17;;
16512;SDS011;8369;48.030;11.598;2023-12-20T12:41:52;1.30;;;1.20;;
16512;SDS011;8369;48.030;11.598;2023-12-20T12:44:18;2.80;;;1.80;;
16512;SDS011;8369;48.030;11.598;2023-12-20T12:46:45;1.40;;;1.30;;
16512;SDS011;8369;48.030;11.598;2023-12-20T12:49:11;1.50;;;1.30;;
16512;SDS011;8369;48.030;11.598;2023-12-20T12:51:37;1.67;;;1.30;;
16512;SDS011;8369;48.030;11.598;2023-12-20T12:54:03;1.33;;;1.20;;
16512;SDS011;8369;48.030;11.598;2023-12-20T12:56:29;1.53;;;1.37;;
16512;SDS011;8369;48.030;11.598;2023-12-20T12:58:55;2.80;;;2.30;;
16512;SDS011;8369;48.030;11.598;2023-12-20T13:01:21;2.40;;;2.10;;
16512;SDS011;8369;48.030;11.598;2023-12-20T13:03:47;2.97;;;1.57;;
16512;SDS011;8369;48.030;11.598;2023-12-20T13:06:13;1.70;;;1.50;;
16512;SDS011;8369;48.030;11.598;2023-12-20T13:08:39;1.77;;;1.53;;
16512;SDS011;8369;48.030;11.598;2023-12-20T13:11:05;1.73;;;1.63;;
16512;SDS011;8369;48.030;11.598;2023-12-20T13:13:31;1.97;;;1.30;;
16512;SDS011;8369;48.030;11.598;2023-12-20T13:15:57;1.70;;;1.60;;
16512;SDS011;8369;48.030;11.598;2023-12-20T13:18:23;1.50;;;1.40;;
16512;SDS011;8369;48.030;11.598;2023-12-20T13:20:49;1.80;;;1.60;;
16512;SDS011;8369;48.030;11.598;2023-12-20T13:23:15;1.60;;;1.33;;
16512;SDS011;8369;48.030;11.598;2023-12-20T13:25:43;1.57;;;1.47;;
16512;SDS011;8369;48.030;11.598;2023-12-20T13:28:11;1.50;;;1.30;;
16512;SDS011;8369;48.030;11.598;2023-12-20T13:30:37;1.20;;;1.10;;
16512;SDS011;8369;48.030;11.598;2023-12-20T13:33:04;1.00;;;1.00;;
16512;SDS011;8369;48.030;11.598;2023-12-20T13:35:31;1.37;;;1.23;;
16512;SDS011;8369;48.030;11.598;2023-12-20T13:37:57;1.20;;;1.10;;
16512;SDS011;8369;48.030;11.598;2023-12-20T13:40:23;1.37;;;1.27;;
16512;SDS011;8369;48.030;11.598;2023-12-20T13:42:49;1.70;;;1.30;;
16512;SDS011;8369;48.030;11.598;2023-12-20T13:45:15;1.23;;;1.13;;
16512;SDS011;8369;48.030;11.598;2023-12-20T13:47:41;2.13;;;1.50;;
16512;SDS011;8369;48.030;11.598;2023-12-20T13:50:07;2.00;;;1.50;;
16512;SDS011;8369;48.030;11.598;2023-12-20T13:52:34;1.80;;;1.60;;
16512;SDS011;8369;48.030;11.598;2023-12-20T13:55:01;2.37;;;1.60;;
16512;SDS011;8369;48.030;11.598;2023-12-20T13:57:27;3.23;;;1.90;;
16512;SDS011;8369;48.030;11.598;2023-12-20T13:59:54;1.87;;;1.60;;
16512;SDS011;8369;48.030;11.598;2023-12-20T14:02:22;2.87;;;1.87;;
16512;SDS011;8369;48.030;11.598;2023-12-20T14:04:48;2.43;;;1.60;;
16512;SDS011;8369;48.030;11.598;2023-12-20T14:07:14;2.30;;;1.57;;
16512;SDS011;8369;48.030;11.598;2023-12-20T14:09:41;3.77;;;2.80;;
16512;SDS011;8369;48.030;11.598;2023-12-20T14:12:11;12.40;;;5.07;;
16512;SDS011;8369;48.030;11.598;2023-12-20T14:14:37;6.57;;;3.80;;
16512;SDS011;8369;48.030;11.598;2023-12-20T14:17:03;3.50;;;2.10;;
16512;SDS011;8369;48.030;11.598;2023-12-20T14:19:32;2.57;;;1.87;;
16512;SDS011;8369;48.030;11.598;2023-12-20T14:21:58;2.67;;;1.70;;
16512;SDS011;8369;48.030;11.598;2023-12-20T14:24:27;2.57;;;1.60;;
16512;SDS011;8369;48.030;11.598;2023-12-20T14:26:52;3.67;;;1.83;;
16512;SDS011;8369;48.030;11.598;2023-12-20T14:29:20;2.00;;;1.70;;
16512;SDS011;8369;48.030;11.598;2023-12-20T14:31:52;5.47;;;2.10;;
16512;SDS011;8369;48.030;11.598;2023-12-20T14:34:19;2.37;;;1.70;;
16512;SDS011;8369;48.030;11.598;2023-12-20T14:36:45;1.70;;;1.53;;
16512;SDS011;8369;48.030;11.598;2023-12-20T14:39:10;5.63;;;1.80;;
16512;SDS011;8369;48.030;11.598;2023-12-20T14:41:38;2.90;;;1.80;;
16512;SDS011;8369;48.030;11.598;2023-12-20T14:44:05;1.77;;;1.67;;
16512;SDS011;8369;48.030;11.598;2023-12-20T14:46:31;4.00;;;1.60;;
16512;SDS011;8369;48.030;11.598;2023-12-20T14:48:57;2.50;;;1.80;;
16512;SDS011;8369;48.030;11.598;2023-12-20T14:51:23;2.97;;;1.93;;
16512;SDS011;8369;48.030;11.598;2023-12-20T14:53:50;3.73;;;1.70;;
16512;SDS011;8369;48.030;11.598;2023-12-20T14:56:16;2.30;;;1.90;;
16512;SDS011;8369;48.030;11.598;2023-12-20T14:58:41;4.80;;;2.03;;
16512;SDS011;8369;48.030;11.598;2023-12-20T15:01:07;2.90;;;2.30;;
16512;SDS011;8369;48.030;11.598;2023-12-20T15:03:34;2.00;;;1.70;;